createdAt,value
2017-12-27T00:00:37.434Z,6.90
2017-12-27T00:03:12.214Z,5.50
2017-12-27T00:05:46.937Z,6.20
2017-12-27T00:08:21.557Z,3.13
2017-12-27T00:10:56.212Z,3.23
2017-12-27T00:13:30.782Z,7.57
2017-12-27T00:16:06.163Z,4.00
2017-12-27T00:18:40.850Z,4.27
2017-12-27T00:21:16.170Z,2.20
2017-12-27T00:37:12.845Z,1.83
2017-12-27T00:39:42.058Z,4.77
2017-12-27T00:42:11.205Z,2.30
2017-12-27T00:44:41.198Z,5.00
2017-12-27T00:47:10.398Z,4.93
2017-12-27T00:49:40.499Z,2.37
2017-12-27T00:52:09.767Z,2.90
2017-12-27T00:54:39.672Z,1.87
2017-12-27T00:57:08.868Z,5.13
2017-12-27T00:59:38.090Z,3.57
2017-12-27T01:02:07.279Z,4.00
2017-12-27T01:04:36.482Z,5.60
2017-12-27T01:07:05.683Z,7.60
2017-12-27T01:09:34.861Z,6.57
2017-12-27T01:12:04.042Z,2.70
2017-12-27T01:14:33.346Z,4.20
2017-12-27T01:17:02.524Z,3.50
2017-12-27T01:19:32.461Z,1.97
2017-12-27T01:22:01.651Z,3.13
2017-12-27T01:24:30.863Z,3.30
2017-12-27T01:27:00.036Z,4.47
2017-12-27T01:29:30.008Z,8.20
2017-12-27T01:31:59.190Z,8.50
2017-12-27T01:34:28.402Z,8.90
2017-12-27T01:36:57.561Z,5.30
2017-12-27T01:39:26.794Z,2.70
2017-12-27T01:41:56.008Z,3.37
2017-12-27T01:44:25.213Z,3.60
2017-12-27T01:47:07.962Z,1.80
2017-12-27T01:49:37.159Z,2.60
2017-12-27T01:52:06.358Z,6.97
2017-12-27T01:54:35.592Z,2.13
2017-12-27T01:57:04.823Z,6.17
2017-12-27T01:59:34.044Z,6.63
2017-12-27T02:02:04.021Z,3.77
2017-12-27T02:04:33.294Z,2.73
2017-12-27T02:07:02.503Z,2.50
2017-12-27T02:09:31.695Z,5.53
2017-12-27T02:12:00.937Z,3.83
2017-12-27T02:14:30.881Z,2.80
2017-12-27T02:17:00.071Z,2.80
2017-12-27T02:19:29.282Z,5.70
2017-12-27T02:21:58.482Z,2.73
2017-12-27T02:24:27.690Z,7.00
2017-12-27T02:26:56.879Z,5.60
2017-12-27T02:29:26.075Z,5.90
2017-12-27T02:31:55.283Z,2.70
2017-12-27T02:34:24.505Z,1.70
2017-12-27T02:36:53.694Z,5.03
2017-12-27T02:42:40.816Z,2.13
2017-12-27T02:45:10.091Z,5.40
2017-12-27T02:47:40.015Z,4.17
2017-12-27T02:50:09.246Z,3.47
2017-12-27T02:52:38.542Z,2.50
2017-12-27T02:55:07.739Z,4.63
2017-12-27T02:57:36.930Z,6.23
2017-12-27T03:00:06.132Z,5.43
2017-12-27T03:02:35.297Z,3.23
2017-12-27T03:05:04.486Z,4.57
2017-12-27T03:07:33.935Z,1.53
2017-12-27T03:10:03.153Z,3.33
2017-12-27T03:12:33.104Z,2.93
2017-12-27T03:15:02.310Z,2.83
2017-12-27T03:17:31.500Z,3.63
2017-12-27T03:20:00.783Z,8.00
2017-12-27T03:22:29.998Z,3.87
2017-12-27T03:24:59.222Z,2.23
2017-12-27T03:27:28.423Z,1.43
2017-12-27T03:29:57.600Z,2.83
2017-12-27T03:32:27.902Z,2.67
2017-12-27T03:34:57.111Z,3.27
2017-12-27T03:37:26.302Z,2.00
2017-12-27T03:39:55.489Z,1.50
2017-12-27T03:42:24.697Z,4.93
2017-12-27T03:44:53.883Z,1.93
2017-12-27T03:47:23.077Z,1.73
2017-12-27T03:49:52.268Z,2.60
2017-12-27T03:52:21.486Z,1.10
2017-12-27T03:54:50.681Z,1.70
2017-12-27T03:57:19.875Z,3.97
2017-12-27T03:59:49.093Z,1.77
2017-12-27T04:02:18.269Z,3.20
2017-12-27T04:04:47.483Z,2.60
2017-12-27T04:07:16.679Z,2.20
2017-12-27T04:09:45.962Z,4.80
2017-12-27T04:12:15.166Z,1.77
2017-12-27T04:14:44.374Z,5.90
2017-12-27T04:17:13.619Z,1.93
2017-12-27T04:19:42.850Z,1.40
2017-12-27T04:22:12.063Z,2.93
2017-12-27T04:24:41.389Z,2.70
2017-12-27T04:27:10.618Z,2.27
2017-12-27T04:29:40.578Z,2.87
2017-12-27T04:32:09.780Z,0.90
2017-12-27T04:34:39.010Z,1.33
2017-12-27T04:37:09.700Z,2.80
2017-12-27T04:39:38.899Z,3.63
2017-12-27T04:42:08.088Z,1.77
2017-12-27T04:44:39.216Z,5.63
2017-12-27T04:47:09.167Z,2.57
2017-12-27T04:49:38.357Z,1.87
2017-12-27T04:52:07.622Z,2.10
2017-12-27T04:54:37.774Z,1.60
2017-12-27T04:57:06.988Z,2.80
2017-12-27T04:59:36.181Z,1.53
2017-12-27T05:02:05.495Z,2.00
2017-12-27T05:04:34.690Z,3.27
2017-12-27T05:07:03.898Z,2.13
2017-12-27T05:09:33.082Z,3.10
2017-12-27T05:12:02.290Z,1.53
2017-12-27T05:14:31.534Z,2.23
2017-12-27T05:17:00.730Z,2.53
2017-12-27T05:19:29.943Z,1.73
2017-12-27T05:21:59.131Z,3.37
2017-12-27T05:24:28.333Z,2.73
2017-12-27T05:26:57.591Z,3.30
2017-12-27T05:29:26.830Z,1.83
2017-12-27T05:31:56.844Z,2.03
2017-12-27T05:34:26.042Z,1.90
2017-12-27T05:36:55.241Z,1.53
2017-12-27T05:39:24.438Z,5.73
2017-12-27T05:41:53.734Z,5.00
2017-12-27T05:44:22.925Z,3.63
2017-12-27T05:46:52.109Z,1.20
2017-12-27T05:49:22.163Z,2.07
2017-12-27T05:51:51.357Z,1.20
2017-12-27T05:54:20.563Z,1.87
2017-12-27T05:56:49.758Z,2.13
2017-12-27T05:59:18.954Z,1.47
2017-12-27T06:01:48.145Z,2.43
2017-12-27T06:04:17.330Z,1.80
2017-12-27T06:06:46.551Z,1.20
2017-12-27T06:09:15.740Z,4.70
2017-12-27T06:11:45.018Z,2.10
2017-12-27T06:14:14.959Z,1.70
2017-12-27T06:16:44.158Z,3.20
2017-12-27T06:19:13.357Z,4.03
2017-12-27T06:21:42.557Z,1.73
2017-12-27T06:24:11.724Z,2.07
2017-12-27T06:26:40.949Z,4.60
2017-12-27T06:29:10.142Z,2.87
2017-12-27T06:31:39.344Z,1.63
2017-12-27T06:34:08.530Z,4.67
2017-12-27T06:36:37.754Z,2.70
2017-12-27T06:39:06.973Z,7.43
2017-12-27T06:41:36.939Z,2.90
2017-12-27T06:44:06.124Z,2.90
2017-12-27T06:46:35.359Z,2.97
2017-12-27T06:49:04.566Z,3.00
2017-12-27T06:51:34.533Z,2.03
2017-12-27T06:54:03.727Z,1.57
2017-12-27T06:56:32.911Z,1.53
2017-12-27T06:59:02.099Z,2.07
2017-12-27T07:01:32.058Z,1.23
2017-12-27T07:04:01.250Z,2.23
2017-12-27T07:06:30.454Z,1.87
2017-12-27T07:08:59.638Z,3.30
2017-12-27T07:11:28.953Z,1.10
2017-12-27T07:13:58.134Z,1.40
2017-12-27T07:16:27.344Z,1.57
2017-12-27T07:18:56.550Z,2.70
2017-12-27T07:21:25.789Z,6.07
2017-12-27T07:23:55.052Z,1.57
2017-12-27T07:26:24.247Z,1.40
2017-12-27T07:28:53.470Z,2.77
2017-12-27T07:31:22.654Z,2.00
2017-12-27T07:33:51.867Z,5.67
2017-12-27T07:36:21.902Z,2.20
2017-12-27T07:38:51.862Z,1.80
2017-12-27T07:41:21.045Z,1.10
2017-12-27T07:43:50.244Z,2.50
2017-12-27T07:46:19.529Z,1.87
2017-12-27T07:48:48.736Z,1.20
2017-12-27T07:51:18.090Z,2.03
2017-12-27T07:53:47.475Z,1.37
2017-12-27T07:56:17.077Z,1.67
2017-12-27T07:58:47.075Z,1.57
2017-12-27T08:01:16.280Z,1.40
2017-12-27T08:03:45.481Z,2.10
2017-12-27T08:06:14.708Z,2.60
2017-12-27T08:08:44.671Z,1.20
2017-12-27T08:11:13.913Z,1.27
2017-12-27T08:13:43.873Z,1.83
2017-12-27T08:16:13.108Z,1.67
2017-12-27T08:18:42.306Z,1.47
2017-12-27T08:21:11.948Z,1.67
2017-12-27T08:23:42.017Z,1.97
2017-12-27T08:26:11.227Z,1.60
2017-12-27T08:28:40.414Z,1.30
2017-12-27T08:31:09.682Z,1.47
2017-12-27T08:33:38.888Z,1.10
2017-12-27T08:36:08.117Z,1.20
2017-12-27T08:38:37.307Z,1.57
2017-12-27T08:41:06.630Z,1.80
2017-12-27T08:43:35.834Z,1.03
2017-12-27T08:46:05.085Z,1.77
2017-12-27T08:48:34.314Z,1.30
2017-12-27T08:51:03.494Z,1.63
2017-12-27T08:53:32.751Z,1.30
2017-12-27T08:56:01.949Z,2.97
2017-12-27T08:58:31.218Z,1.13
2017-12-27T09:01:00.418Z,1.10
2017-12-27T09:03:30.402Z,1.00
2017-12-27T09:05:59.666Z,1.10
2017-12-27T09:08:28.860Z,1.00
2017-12-27T09:10:58.047Z,1.10
2017-12-27T09:13:27.269Z,1.23
2017-12-27T09:15:56.454Z,1.50
2017-12-27T09:18:26.311Z,1.07
2017-12-27T09:20:55.493Z,1.10
2017-12-27T09:23:24.689Z,0.80
2017-12-27T09:25:53.911Z,1.37
2017-12-27T09:28:23.086Z,1.53
2017-12-27T09:30:52.296Z,1.20
2017-12-27T09:33:21.485Z,2.73
2017-12-27T09:35:50.711Z,1.77
2017-12-27T09:38:19.906Z,1.37
2017-12-27T09:40:49.120Z,1.73
2017-12-27T09:43:19.079Z,0.90
2017-12-27T09:45:48.289Z,2.13
2017-12-27T09:48:17.471Z,3.63
2017-12-27T09:50:46.699Z,1.00
2017-12-27T09:53:15.958Z,0.83
2017-12-27T09:55:45.140Z,1.10
2017-12-27T09:58:14.352Z,2.53
2017-12-27T10:00:43.545Z,1.20
2017-12-27T10:03:12.827Z,1.10
2017-12-27T10:05:42.023Z,1.50
2017-12-27T10:08:12.215Z,1.20
2017-12-27T10:10:41.395Z,1.00
2017-12-27T10:13:10.615Z,3.23
2017-12-27T10:15:39.813Z,1.57
2017-12-27T10:18:09.824Z,1.23
2017-12-27T10:20:39.002Z,1.37
2017-12-27T10:23:08.242Z,1.03
2017-12-27T10:25:37.578Z,1.33
2017-12-27T10:28:06.778Z,0.83
2017-12-27T10:30:36.104Z,1.57
2017-12-27T10:33:05.283Z,1.20
2017-12-27T10:35:34.564Z,0.80
2017-12-27T10:38:03.767Z,1.40
2017-12-27T10:40:32.962Z,3.17
2017-12-27T10:43:02.209Z,1.47
2017-12-27T10:45:33.006Z,0.90
2017-12-27T10:48:02.219Z,6.30
2017-12-27T10:50:31.503Z,0.90
2017-12-27T10:53:00.718Z,1.00
2017-12-27T10:55:29.925Z,1.00
2017-12-27T10:57:59.110Z,0.90
2017-12-27T11:00:28.312Z,1.00
2017-12-27T11:02:57.598Z,1.27
2017-12-27T11:05:26.807Z,1.30
2017-12-27T11:07:56.822Z,1.00
2017-12-27T11:10:26.008Z,1.40
2017-12-27T11:12:55.236Z,0.90
2017-12-27T11:15:24.482Z,1.73
2017-12-27T11:17:53.647Z,1.10
2017-12-27T11:20:23.674Z,0.93
2017-12-27T11:22:52.918Z,0.90
2017-12-27T11:25:22.166Z,1.27
2017-12-27T11:27:51.446Z,1.33
2017-12-27T11:30:20.639Z,1.00
2017-12-27T11:32:49.826Z,1.97
2017-12-27T11:35:19.080Z,2.03
2017-12-27T11:37:48.275Z,1.00
2017-12-27T11:40:18.289Z,1.00
2017-12-27T11:42:47.518Z,1.03
2017-12-27T11:45:16.797Z,1.57
2017-12-27T11:47:46.119Z,1.10
2017-12-27T11:50:15.365Z,1.00
2017-12-27T11:52:45.332Z,0.80
2017-12-27T11:55:14.727Z,0.90
2017-12-27T11:57:43.934Z,1.03
2017-12-27T12:00:14.710Z,0.93
2017-12-27T12:02:44.726Z,0.97
2017-12-27T12:05:13.990Z,0.90
2017-12-27T12:07:43.182Z,1.63
2017-12-27T12:10:12.413Z,2.33
2017-12-27T12:12:42.416Z,1.00
2017-12-27T12:15:11.641Z,1.13
2017-12-27T12:17:41.623Z,0.73
2017-12-27T12:20:10.827Z,0.83
2017-12-27T12:22:40.032Z,0.80
2017-12-27T12:25:09.996Z,1.10
2017-12-27T12:27:39.210Z,0.97
2017-12-27T12:30:08.409Z,1.10
2017-12-27T12:32:37.610Z,1.07
2017-12-27T12:35:06.798Z,1.20
2017-12-27T12:37:36.091Z,1.63
2017-12-27T12:40:05.326Z,1.00
2017-12-27T12:42:34.527Z,1.10
2017-12-27T12:45:03.790Z,1.33
2017-12-27T12:47:32.995Z,1.27
2017-12-27T12:50:02.186Z,1.73
2017-12-27T12:52:31.459Z,0.87
2017-12-27T12:55:01.416Z,1.10
2017-12-27T12:57:30.679Z,1.10
2017-12-27T12:59:59.911Z,0.87
2017-12-27T13:02:29.131Z,0.87
2017-12-27T13:04:58.456Z,1.00
2017-12-27T13:07:27.650Z,0.80
2017-12-27T13:09:56.870Z,1.63
2017-12-27T13:12:26.114Z,1.10
2017-12-27T13:14:55.339Z,0.80
2017-12-27T13:17:24.567Z,1.40
2017-12-27T13:19:53.906Z,1.00
2017-12-27T13:22:23.108Z,1.00
2017-12-27T13:24:53.111Z,0.97
2017-12-27T13:27:22.363Z,1.07
2017-12-27T13:29:51.598Z,2.60
2017-12-27T13:32:20.804Z,0.80
2017-12-27T13:34:50.015Z,1.73
2017-12-27T13:37:20.070Z,0.80
2017-12-27T13:39:49.258Z,1.33
2017-12-27T13:42:18.538Z,1.57
2017-12-27T13:44:48.518Z,0.80
2017-12-27T13:47:17.763Z,1.97
2017-12-27T13:49:47.727Z,2.60
2017-12-27T13:52:16.940Z,1.30
2017-12-27T13:54:46.120Z,1.00
2017-12-27T13:57:15.337Z,1.20
2017-12-27T13:59:44.559Z,1.00
2017-12-27T14:02:14.517Z,0.90
2017-12-27T14:04:43.715Z,1.27
2017-12-27T14:07:12.914Z,1.20
2017-12-27T14:09:42.146Z,1.00
2017-12-27T14:12:11.344Z,1.10
2017-12-27T14:14:40.588Z,1.20
2017-12-27T14:17:09.787Z,1.07
2017-12-27T14:19:38.989Z,1.20
2017-12-27T14:22:09.275Z,1.10
2017-12-27T14:24:38.471Z,1.27
2017-12-27T14:27:08.456Z,1.67
2017-12-27T14:29:37.643Z,1.10
2017-12-27T14:32:06.847Z,1.90
2017-12-27T14:34:36.049Z,1.70
2017-12-27T14:37:05.289Z,1.40
2017-12-27T14:39:35.255Z,4.50
2017-12-27T14:42:04.486Z,1.20
2017-12-27T14:44:33.663Z,1.33
2017-12-27T14:47:02.939Z,2.80
2017-12-27T14:49:32.158Z,1.20
2017-12-27T14:52:01.405Z,1.60
2017-12-27T14:54:30.621Z,2.63
2017-12-27T14:56:59.823Z,1.20
2017-12-27T14:59:29.021Z,1.60
2017-12-27T15:01:58.210Z,1.57
2017-12-27T15:04:27.410Z,1.43
2017-12-27T15:06:56.602Z,1.10
2017-12-27T15:09:25.854Z,1.40
2017-12-27T15:11:55.062Z,2.30
2017-12-27T15:14:25.024Z,5.43
2017-12-27T15:16:54.254Z,3.63
2017-12-27T15:19:23.463Z,4.80
2017-12-27T15:21:52.614Z,2.80
2017-12-27T15:24:21.939Z,2.20
2017-12-27T15:26:51.133Z,2.73
2017-12-27T15:29:20.343Z,1.60
2017-12-27T15:31:49.570Z,1.73
2017-12-27T15:34:19.564Z,1.53
2017-12-27T15:36:48.764Z,2.53
2017-12-27T15:39:17.982Z,1.70
2017-12-27T15:41:48.038Z,2.00
2017-12-27T15:44:17.411Z,1.90
2017-12-27T15:46:46.628Z,1.30
2017-12-27T15:49:15.850Z,1.00
2017-12-27T15:51:45.117Z,1.60
2017-12-27T15:54:14.344Z,2.07
2017-12-27T15:56:43.550Z,3.77
2017-12-27T15:59:14.730Z,2.13
2017-12-27T16:01:44.674Z,2.10
2017-12-27T16:04:13.875Z,3.10
2017-12-27T16:06:43.090Z,1.70
2017-12-27T16:09:12.351Z,3.20
2017-12-27T16:11:42.293Z,2.10
2017-12-27T16:14:11.499Z,2.70
2017-12-27T16:16:40.728Z,2.67
2017-12-27T16:19:09.913Z,1.70
2017-12-27T16:21:39.175Z,1.80
2017-12-27T16:24:08.367Z,2.17
2017-12-27T16:26:37.556Z,1.63
2017-12-27T16:29:06.748Z,2.90
2017-12-27T16:31:35.935Z,3.07
2017-12-27T16:34:05.262Z,3.27
2017-12-27T16:36:34.734Z,2.47
2017-12-27T16:39:04.551Z,2.00
2017-12-27T16:41:33.907Z,2.17
2017-12-27T16:44:03.115Z,2.40
2017-12-27T16:46:32.314Z,1.60
2017-12-27T16:49:01.535Z,1.73
2017-12-27T16:51:31.557Z,2.27
2017-12-27T16:54:01.548Z,2.10
2017-12-27T16:56:30.730Z,3.10
2017-12-27T16:58:59.948Z,4.80
2017-12-27T17:01:29.137Z,3.27
2017-12-27T17:03:58.326Z,1.93
2017-12-27T17:06:27.558Z,2.60
2017-12-27T17:08:57.539Z,1.90
2017-12-27T17:11:26.786Z,2.90
2017-12-27T17:13:55.978Z,1.90
2017-12-27T17:16:25.207Z,1.40
2017-12-27T17:18:54.401Z,2.33
2017-12-27T17:21:23.650Z,2.40
2017-12-27T17:23:52.915Z,2.37
2017-12-27T17:26:22.143Z,2.23
2017-12-27T17:28:51.335Z,2.20
2017-12-27T17:31:20.566Z,7.67
2017-12-27T17:33:50.662Z,1.90
2017-12-27T17:36:20.650Z,1.50
2017-12-27T17:38:49.847Z,2.20
2017-12-27T17:41:19.047Z,2.20
2017-12-27T17:43:48.560Z,3.87
2017-12-27T17:46:17.744Z,2.30
2017-12-27T17:48:46.933Z,2.33
2017-12-27T17:51:17.257Z,2.07
2017-12-27T17:53:46.472Z,2.93
2017-12-27T17:56:15.688Z,2.63
2017-12-27T17:58:45.680Z,3.00
2017-12-27T18:01:14.946Z,3.53
2017-12-27T18:03:44.191Z,3.83
2017-12-27T18:06:13.426Z,2.17
2017-12-27T18:08:42.699Z,1.97
2017-12-27T18:11:12.699Z,1.83
2017-12-27T18:13:41.921Z,2.47
2017-12-27T18:16:11.888Z,3.37
2017-12-27T18:18:41.142Z,4.80
2017-12-27T18:21:11.107Z,3.67
2017-12-27T18:23:40.338Z,2.30
2017-12-27T18:26:10.310Z,2.33
2017-12-27T18:28:39.514Z,3.47
2017-12-27T18:31:08.736Z,2.57
2017-12-27T18:33:38.791Z,2.60
2017-12-27T18:36:08.003Z,3.67
2017-12-27T18:38:37.199Z,2.93
2017-12-27T18:41:06.436Z,3.33
2017-12-27T18:43:35.592Z,4.97
2017-12-27T18:46:04.874Z,3.20
2017-12-27T18:48:34.860Z,2.33
2017-12-27T18:51:04.052Z,2.53
2017-12-27T18:53:34.038Z,3.77
2017-12-27T18:56:03.250Z,3.30
2017-12-27T18:58:32.481Z,3.20
2017-12-27T19:01:02.492Z,3.10
2017-12-27T19:03:32.481Z,3.20
2017-12-27T19:06:01.700Z,7.17
2017-12-27T19:08:30.937Z,3.30
2017-12-27T19:11:00.172Z,4.40
2017-12-27T19:13:29.375Z,3.00
2017-12-27T19:15:58.608Z,3.83
2017-12-27T19:18:28.809Z,4.63
2017-12-27T19:20:58.070Z,4.27
2017-12-27T19:23:27.349Z,5.27
2017-12-27T19:25:56.563Z,3.30
2017-12-27T19:28:25.947Z,2.90
2017-12-27T19:30:55.211Z,3.50
2017-12-27T19:33:25.189Z,3.13
2017-12-27T19:35:54.475Z,3.00
2017-12-27T19:38:23.752Z,3.20
2017-12-27T19:40:53.127Z,3.00
2017-12-27T19:43:23.150Z,3.83
2017-12-27T19:45:53.136Z,3.40
2017-12-27T19:48:22.372Z,3.90
2017-12-27T19:50:52.408Z,6.70
2017-12-27T19:53:21.750Z,3.23
2017-12-27T19:55:51.098Z,3.97
2017-12-27T19:58:21.097Z,4.47
2017-12-27T20:00:51.085Z,4.40
2017-12-27T20:03:20.385Z,5.07
2017-12-27T20:05:49.736Z,4.30
2017-12-27T20:08:19.064Z,4.83
2017-12-27T20:10:48.401Z,4.47
2017-12-27T20:13:18.438Z,4.37
2017-12-27T20:15:47.815Z,2.90
2017-12-27T20:18:17.132Z,5.23
2017-12-27T20:20:46.445Z,3.87
2017-12-27T20:23:15.851Z,5.40
2017-12-27T20:25:45.138Z,4.20
2017-12-27T20:28:14.615Z,6.60
2017-12-27T20:30:43.944Z,3.63
2017-12-27T20:33:13.217Z,4.37
2017-12-27T20:35:42.455Z,6.77
2017-12-27T20:38:11.750Z,6.50
2017-12-27T20:40:41.113Z,4.20
2017-12-27T20:43:10.514Z,4.93
2017-12-27T20:45:39.794Z,4.57
2017-12-27T20:48:09.235Z,4.57
2017-12-27T20:50:38.561Z,5.43
2017-12-27T20:53:07.867Z,5.80
2017-12-27T20:55:37.128Z,4.77
2017-12-27T20:58:06.533Z,5.20
2017-12-27T21:00:35.815Z,5.43
2017-12-27T21:03:05.081Z,5.30
2017-12-27T21:05:34.289Z,4.80
2017-12-27T21:08:03.541Z,5.63
2017-12-27T21:10:33.518Z,5.10
2017-12-27T21:13:03.602Z,5.40
2017-12-27T21:15:32.794Z,5.07
2017-12-27T21:18:02.084Z,4.57
2017-12-27T21:20:31.362Z,4.67
2017-12-27T21:23:00.535Z,6.33
2017-12-27T21:25:29.893Z,4.67
2017-12-27T21:27:59.135Z,9.40
2017-12-27T21:30:28.384Z,5.73
2017-12-27T21:32:57.772Z,6.60
2017-12-27T21:35:27.979Z,5.50
2017-12-27T21:37:57.388Z,4.67
2017-12-27T21:40:27.504Z,4.80
2017-12-27T21:42:57.552Z,5.10
2017-12-27T21:45:26.832Z,4.80
2017-12-27T21:48:01.571Z,8.13
2017-12-27T21:50:30.813Z,5.43
2017-12-27T21:53:00.065Z,5.37
2017-12-27T21:55:29.410Z,5.33
2017-12-27T21:58:04.134Z,5.00
2017-12-27T22:00:38.785Z,12.20
2017-12-27T22:03:08.087Z,6.20
2017-12-27T22:05:37.343Z,7.30
2017-12-27T22:08:07.376Z,5.50
2017-12-27T22:10:36.674Z,4.67
2017-12-27T22:13:05.887Z,5.23
2017-12-27T22:15:35.099Z,4.23
2017-12-27T22:18:05.055Z,5.27
2017-12-27T22:20:39.698Z,6.07
2017-12-27T22:23:08.917Z,4.83
2017-12-27T22:25:38.166Z,4.20
2017-12-27T22:28:07.398Z,11.57
2017-12-27T22:30:36.635Z,8.00
2017-12-27T22:33:06.677Z,5.17
2017-12-27T22:35:35.894Z,5.23
2017-12-27T22:38:05.085Z,5.30
2017-12-27T22:40:34.309Z,4.73
2017-12-27T22:43:03.474Z,5.47
2017-12-27T22:45:32.754Z,4.27
2017-12-27T22:48:02.014Z,6.90
2017-12-27T22:50:31.442Z,8.33
2017-12-27T22:53:00.708Z,5.80
2017-12-27T22:55:29.911Z,7.80
2017-12-27T22:57:59.116Z,6.87
2017-12-27T23:00:28.330Z,7.37
2017-12-27T23:02:58.299Z,9.50
2017-12-27T23:05:27.503Z,8.70
2017-12-27T23:07:56.861Z,7.60
2017-12-27T23:10:26.096Z,7.00
2017-12-27T23:12:55.307Z,9.00
2017-12-27T23:15:24.539Z,11.23
2017-12-27T23:17:53.732Z,14.80
2017-12-27T23:20:23.074Z,13.77
2017-12-27T23:22:52.276Z,17.60
2017-12-27T23:25:21.488Z,16.73
2017-12-27T23:27:50.735Z,24.00
2017-12-27T23:30:20.091Z,23.63
2017-12-27T23:32:49.289Z,26.47
2017-12-27T23:35:18.511Z,20.67
2017-12-27T23:37:48.465Z,24.73
2017-12-27T23:40:17.708Z,27.53
2017-12-27T23:42:47.026Z,17.27
2017-12-27T23:45:17.099Z,20.80
2017-12-27T23:47:46.338Z,16.87
2017-12-27T23:50:16.414Z,12.90
2017-12-27T23:52:45.648Z,8.10
2017-12-27T23:55:14.910Z,5.50
2017-12-27T23:57:44.120Z,5.77
